createdAt,value
2023-03-21T00:01:56.309Z,95.70
2023-03-21T00:04:28.336Z,95.70
2023-03-21T00:06:56.977Z,95.70
2023-03-21T00:09:24.416Z,95.80
2023-03-21T00:11:51.784Z,96.00
2023-03-21T00:14:20.355Z,96.10
2023-03-21T00:16:52.199Z,96.00
2023-03-21T00:19:21.923Z,96.00
2023-03-21T00:22:06.501Z,96.10
2023-03-21T00:24:36.631Z,96.20
2023-03-21T00:27:43.020Z,96.50
2023-03-21T00:29:56.069Z,96.80
2023-03-21T00:32:24.504Z,97.50
2023-03-21T00:35:11.917Z,97.70
2023-03-21T00:37:39.831Z,97.70
2023-03-21T00:40:22.961Z,97.70
2023-03-21T00:42:52.680Z,97.60
2023-03-21T00:45:22.351Z,97.80
2023-03-21T00:47:52.151Z,97.90
2023-03-21T00:50:21.816Z,97.70
2023-03-21T00:52:49.290Z,97.70
2023-03-21T00:55:19.475Z,97.70
2023-03-21T00:58:01.160Z,97.70
2023-03-21T01:00:29.609Z,97.50
2023-03-21T01:03:04.284Z,97.40
2023-03-21T01:05:59.741Z,97.50
2023-03-21T01:08:33.189Z,97.50
2023-03-21T01:11:15.754Z,97.50
2023-03-21T01:13:53.652Z,97.80
2023-03-21T01:16:25.651Z,97.60
2023-03-21T01:18:54.010Z,98.00
2023-03-21T01:21:24.450Z,98.10
2023-03-21T01:23:52.147Z,98.20
2023-03-21T01:26:19.597Z,98.50
2023-03-21T01:28:47.156Z,98.50
2023-03-21T01:31:16.263Z,98.70
2023-03-21T01:33:44.465Z,98.50
2023-03-21T01:36:23.463Z,98.50
2023-03-21T01:38:53.826Z,98.40
2023-03-21T01:41:45.160Z,98.90
2023-03-21T01:44:25.109Z,99.30
2023-03-21T01:47:10.575Z,99.50
2023-03-21T01:49:54.377Z,99.60
2023-03-21T01:52:38.767Z,99.70
2023-03-21T01:55:16.625Z,99.80
2023-03-21T01:58:05.269Z,99.60
2023-03-21T02:00:41.608Z,99.90
2023-03-21T02:03:33.529Z,99.80
2023-03-21T02:07:01.738Z,99.90
2023-03-21T02:09:53.067Z,99.90
2023-03-21T02:12:23.598Z,99.90
2023-03-21T02:14:53.314Z,99.90
2023-03-21T02:18:02.913Z,99.90
2023-03-21T02:21:08.316Z,99.90
2023-03-21T02:23:50.352Z,99.90
2023-03-21T02:26:48.164Z,99.90
2023-03-21T02:29:47.658Z,99.90
2023-03-21T02:32:52.793Z,99.90
2023-03-21T02:35:56.769Z,99.90
2023-03-21T02:38:51.246Z,99.90
2023-03-21T02:41:51.299Z,99.90
2023-03-21T02:44:40.637Z,99.90
2023-03-21T02:47:22.143Z,99.90
2023-03-21T02:50:00.459Z,99.90
2023-03-21T02:52:39.150Z,99.90
2023-03-21T02:55:15.784Z,99.90
2023-03-21T02:57:54.250Z,99.90
2023-03-21T03:00:27.642Z,99.90
2023-03-21T03:03:08.209Z,99.90
2023-03-21T03:05:42.129Z,99.90
2023-03-21T03:08:37.531Z,99.90
2023-03-21T03:11:29.584Z,99.90
2023-03-21T03:14:46.499Z,99.90
2023-03-21T03:17:17.037Z,99.90
2023-03-21T03:19:57.634Z,99.90
2023-03-21T03:22:37.602Z,99.90
2023-03-21T03:25:26.959Z,99.90
2023-03-21T03:28:01.692Z,99.90
2023-03-21T03:30:39.260Z,99.90
2023-03-21T03:33:11.194Z,99.90
2023-03-21T03:35:38.743Z,99.90
2023-03-21T03:38:09.078Z,99.90
2023-03-21T03:40:49.836Z,99.90
2023-03-21T03:43:46.982Z,99.90
2023-03-21T03:46:40.360Z,99.90
2023-03-21T03:49:24.954Z,99.90
2023-03-21T03:52:06.433Z,99.90
2023-03-21T03:54:47.697Z,99.90
2023-03-21T03:57:16.292Z,99.90
2023-03-21T03:59:45.334Z,99.90
2023-03-21T04:02:30.317Z,99.90
2023-03-21T04:04:57.968Z,99.90
2023-03-21T04:07:25.854Z,99.90
2023-03-21T04:09:56.146Z,99.90
2023-03-21T04:12:24.800Z,99.90
2023-03-21T04:15:15.072Z,99.90
2023-03-21T04:17:47.987Z,99.90
2023-03-21T04:20:23.872Z,99.90
2023-03-21T04:23:05.599Z,99.90
2023-03-21T04:25:53.954Z,99.90
2023-03-21T04:28:26.993Z,99.90
2023-03-21T04:31:25.940Z,99.90
2023-03-21T04:34:05.985Z,99.90
2023-03-21T04:36:39.071Z,99.90
2023-03-21T04:39:13.080Z,99.90
2023-03-21T04:41:46.472Z,99.90
2023-03-21T04:44:15.691Z,99.90
2023-03-21T04:46:43.443Z,99.90
2023-03-21T04:49:11.994Z,99.90
2023-03-21T04:51:39.852Z,99.90
2023-03-21T04:56:47.885Z,99.90
2023-03-21T04:59:16.814Z,99.90
2023-03-21T05:01:45.025Z,99.90
2023-03-21T05:04:17.333Z,99.90
2023-03-21T05:06:46.528Z,99.90
2023-03-21T05:09:16.717Z,99.90
2023-03-21T05:11:44.600Z,99.90
2023-03-21T05:14:23.436Z,99.90
2023-03-21T05:16:55.629Z,99.90
2023-03-21T05:19:34.887Z,99.90
2023-03-21T05:22:09.700Z,99.90
2023-03-21T05:24:39.444Z,99.90
2023-03-21T05:27:11.509Z,99.90
2023-03-21T05:29:43.864Z,99.90
2023-03-21T05:32:13.487Z,99.90
2023-03-21T05:34:43.261Z,99.90
2023-03-21T05:37:10.640Z,99.90
2023-03-21T05:39:51.079Z,99.90
2023-03-21T05:42:25.734Z,99.90
2023-03-21T05:44:53.537Z,99.90
2023-03-21T05:47:26.225Z,99.90
2023-03-21T05:49:55.329Z,99.90
2023-03-21T05:52:23.609Z,99.90
2023-03-21T05:54:51.102Z,99.90
2023-03-21T05:57:22.789Z,99.90
2023-03-21T05:59:59.127Z,99.90
2023-03-21T06:02:28.330Z,99.90
2023-03-21T06:04:58.915Z,99.90
2023-03-21T06:07:29.369Z,99.90
2023-03-21T06:52:46.942Z,95.50
2023-03-21T06:55:26.224Z,94.40
2023-03-21T06:58:30.881Z,93.80
2023-03-21T07:04:30.217Z,92.90
2023-03-21T07:07:34.873Z,92.00
2023-03-21T07:10:05.245Z,91.70
2023-03-21T07:12:41.789Z,91.90
2023-03-21T07:15:43.243Z,91.10
2023-03-21T07:18:28.058Z,90.70
2023-03-21T07:20:58.095Z,90.40
2023-03-21T07:23:40.197Z,90.30
2023-03-21T07:26:20.867Z,89.70
2023-03-21T07:29:27.230Z,89.20
2023-03-21T07:31:57.876Z,88.50
2023-03-21T07:34:27.472Z,88.30
2023-03-21T07:36:57.705Z,87.70
2023-03-21T07:39:33.253Z,86.90
2023-03-21T07:42:01.177Z,87.50
2023-03-21T07:44:40.147Z,86.10
2023-03-21T07:47:09.378Z,86.10
2023-03-21T07:50:12.117Z,85.50
2023-03-21T07:52:56.557Z,85.60
2023-03-21T07:55:24.301Z,85.20
2023-03-21T07:57:53.792Z,85.00
2023-03-21T08:06:37.392Z,82.10
2023-03-21T08:09:30.733Z,81.90
2023-03-21T08:12:00.875Z,81.70
2023-03-21T08:14:28.687Z,81.00
2023-03-21T08:17:04.429Z,80.00
2023-03-21T08:19:37.710Z,80.60
2023-03-21T08:25:43.047Z,78.30
2023-03-21T08:28:10.919Z,78.30
2023-03-21T08:30:38.710Z,76.40
2023-03-21T08:33:09.179Z,75.80
2023-03-21T08:35:40.849Z,75.50
2023-03-21T08:38:50.262Z,75.60
2023-03-21T08:41:27.689Z,75.70
2023-03-21T08:43:57.921Z,75.00
2023-03-21T08:46:32.281Z,73.90
2023-03-21T08:49:21.522Z,73.70
2023-03-21T08:52:04.666Z,73.50
2023-03-21T08:54:34.769Z,74.10
2023-03-21T08:57:03.077Z,72.70
2023-03-21T08:59:38.205Z,71.70
2023-03-21T09:02:06.706Z,70.90
2023-03-21T09:04:44.946Z,68.70
2023-03-21T09:07:15.176Z,70.60
2023-03-21T09:10:08.233Z,69.80
2023-03-21T09:12:44.699Z,69.30
2023-03-21T09:15:16.462Z,69.90
2023-03-21T09:18:15.219Z,69.70
2023-03-21T09:20:47.575Z,69.60
2023-03-21T09:25:59.232Z,68.60
2023-03-21T09:28:27.629Z,69.80
2023-03-21T09:30:55.531Z,68.80
2023-03-21T09:33:25.718Z,67.40
2023-03-21T09:35:55.409Z,67.10
2023-03-21T09:38:23.335Z,65.60
2023-03-21T09:40:50.645Z,65.90
2023-03-21T09:43:18.138Z,64.40
2023-03-21T09:45:55.449Z,65.50
2023-03-21T09:48:57.257Z,66.90
2023-03-21T09:51:29.270Z,66.60
2023-03-21T09:54:04.003Z,66.90
2023-03-21T09:56:49.016Z,63.80
2023-03-21T09:59:34.912Z,61.80
2023-03-21T10:02:04.482Z,63.00
2023-03-21T10:04:34.124Z,62.20
2023-03-21T10:07:09.311Z,64.10
2023-03-21T10:09:42.032Z,64.20
2023-03-21T10:12:24.920Z,64.70
2023-03-21T10:15:00.594Z,65.20
2023-03-21T10:17:45.586Z,64.90
2023-03-21T10:20:26.391Z,65.00
2023-03-21T10:22:58.269Z,64.50
2023-03-21T10:25:48.685Z,64.50
2023-03-21T10:28:22.386Z,64.90
2023-03-21T10:30:52.846Z,64.50
2023-03-21T10:33:31.021Z,65.00
2023-03-21T10:36:26.003Z,64.80
2023-03-21T10:39:06.859Z,63.90
2023-03-21T10:41:36.226Z,63.50
2023-03-21T10:44:15.140Z,62.70
2023-03-21T10:46:59.578Z,61.40
2023-03-21T10:49:40.166Z,61.90
2023-03-21T10:52:11.833Z,61.80
2023-03-21T10:54:43.850Z,61.40
2023-03-21T10:57:22.579Z,60.10
2023-03-21T10:59:59.728Z,57.10
2023-03-21T11:02:55.729Z,57.70
2023-03-21T11:18:13.091Z,60.10
2023-03-21T11:23:44.040Z,60.20
2023-03-21T11:26:17.498Z,61.20
2023-03-21T11:28:49.790Z,61.40
2023-03-21T11:31:33.818Z,61.30
2023-03-21T11:34:10.233Z,60.20
2023-03-21T11:36:42.907Z,58.30
2023-03-21T11:39:35.557Z,57.80
2023-03-21T11:45:12.795Z,57.80
2023-03-21T11:50:46.690Z,59.20
2023-03-21T11:53:51.393Z,58.70
2023-03-21T11:56:51.171Z,59.60
2023-03-21T12:02:57.989Z,57.20
2023-03-21T12:09:39.858Z,56.60
2023-03-21T12:15:58.358Z,58.10
2023-03-21T12:18:58.044Z,57.30
2023-03-21T12:21:48.708Z,57.30
2023-03-21T12:24:55.682Z,56.60
2023-03-21T12:27:42.137Z,56.00
2023-03-21T12:30:43.130Z,56.20
2023-03-21T12:33:24.354Z,56.20
2023-03-21T12:36:07.276Z,57.80
2023-03-21T12:38:49.004Z,58.40
2023-03-21T12:41:36.427Z,58.60
2023-03-21T12:44:10.708Z,58.20
2023-03-21T12:46:53.114Z,57.50
2023-03-21T12:49:28.090Z,58.00
2023-03-21T12:52:04.768Z,56.80
2023-03-21T12:54:39.235Z,57.70
2023-03-21T12:57:27.722Z,58.50
2023-03-21T13:00:03.272Z,59.20
2023-03-21T13:03:10.401Z,60.10
2023-03-21T13:06:12.798Z,61.70
2023-03-21T13:09:10.505Z,61.40
2023-03-21T13:11:38.297Z,60.80
2023-03-21T13:14:16.411Z,59.60
2023-03-21T13:17:10.504Z,58.80
2023-03-21T13:19:56.668Z,58.00
2023-03-21T13:22:31.913Z,59.00
2023-03-21T13:25:20.302Z,59.90
2023-03-21T13:28:05.551Z,61.00
2023-03-21T13:30:33.564Z,61.90
2023-03-21T13:33:21.350Z,62.30
2023-03-21T13:36:06.963Z,62.20
2023-03-21T13:38:36.595Z,62.40
2023-03-21T13:41:13.960Z,59.60
2023-03-21T13:44:07.223Z,59.30
2023-03-21T13:46:53.411Z,58.20
2023-03-21T13:49:36.029Z,58.20
2023-03-21T13:52:27.665Z,58.30
2023-03-21T13:54:57.633Z,58.60
2023-03-21T13:57:30.286Z,59.50
2023-03-21T14:00:19.300Z,59.80
2023-03-21T14:03:05.698Z,60.50
2023-03-21T14:05:35.538Z,60.50
2023-03-21T14:08:15.573Z,61.40
2023-03-21T14:10:52.444Z,61.50
2023-03-21T14:13:23.060Z,61.50
2023-03-21T14:16:00.504Z,61.20
2023-03-21T14:18:52.271Z,61.30
2023-03-21T14:21:24.224Z,61.30
2023-03-21T14:24:04.577Z,61.90
2023-03-21T14:26:40.656Z,62.20
2023-03-21T14:29:25.078Z,63.00
2023-03-21T14:31:56.883Z,61.90
2023-03-21T14:34:27.317Z,60.10
2023-03-21T14:36:58.530Z,58.40
2023-03-21T14:39:33.699Z,58.20
2023-03-21T14:42:15.056Z,57.80
2023-03-21T14:44:55.729Z,58.60
2023-03-21T14:47:27.746Z,58.30
2023-03-21T14:49:57.155Z,58.70
2023-03-21T14:52:32.952Z,59.70
2023-03-21T14:55:13.198Z,59.80
2023-03-21T14:57:40.804Z,58.80
2023-03-21T15:00:16.065Z,59.10
2023-03-21T15:02:46.428Z,59.20
2023-03-21T15:05:38.800Z,59.00
2023-03-21T15:08:18.744Z,58.80
2023-03-21T15:11:06.862Z,58.70
2023-03-21T15:13:50.338Z,58.60
2023-03-21T15:16:18.598Z,58.70
2023-03-21T15:18:46.869Z,58.70
2023-03-21T15:21:36.658Z,59.00
2023-03-21T15:24:32.843Z,58.40
2023-03-21T15:27:06.717Z,58.70
2023-03-21T15:29:38.380Z,58.70
2023-03-21T15:32:16.729Z,58.80
2023-03-21T15:34:44.560Z,59.50
2023-03-21T15:37:28.336Z,59.30
2023-03-21T15:40:09.866Z,59.20
2023-03-21T15:42:41.802Z,59.00
2023-03-21T15:45:27.708Z,59.40
2023-03-21T15:48:06.736Z,59.50
2023-03-21T15:50:38.429Z,59.60
2023-03-21T15:53:19.502Z,60.00
2023-03-21T15:55:57.046Z,59.80
2023-03-21T15:58:28.081Z,59.50
2023-03-21T16:00:58.143Z,59.40
2023-03-21T16:03:29.025Z,59.90
2023-03-21T16:06:12.660Z,60.50
2023-03-21T16:09:08.663Z,61.10
2023-03-21T16:11:38.960Z,61.30
2023-03-21T16:14:39.764Z,62.50
2023-03-21T16:20:25.041Z,63.90
2023-03-21T16:23:40.229Z,64.30
2023-03-21T16:26:13.642Z,64.80
2023-03-21T16:28:50.920Z,65.10
2023-03-21T16:34:32.380Z,65.70
2023-03-21T16:36:59.796Z,66.10
2023-03-21T16:39:27.780Z,66.30
2023-03-21T16:41:58.650Z,66.20
2023-03-21T16:44:45.970Z,66.70
2023-03-21T16:47:18.889Z,66.60
2023-03-21T16:49:47.921Z,66.90
2023-03-21T16:52:15.995Z,67.10
2023-03-21T16:54:43.924Z,67.40
2023-03-21T16:57:30.670Z,67.30
2023-03-21T17:00:00.731Z,67.20
2023-03-21T17:02:37.810Z,67.30
2023-03-21T17:05:13.370Z,67.50
2023-03-21T17:07:42.167Z,67.70
2023-03-21T17:10:18.403Z,67.90
2023-03-21T17:12:46.662Z,68.00
2023-03-21T17:15:14.946Z,68.30
2023-03-21T17:17:42.793Z,68.70
2023-03-21T17:20:23.458Z,69.00
2023-03-21T17:22:51.723Z,69.20
2023-03-21T17:25:20.895Z,69.50
2023-03-21T17:27:49.491Z,70.10
2023-03-21T17:30:22.124Z,70.10
2023-03-21T17:32:50.923Z,70.10
2023-03-21T17:35:19.522Z,70.40
2023-03-21T17:37:50.733Z,70.60
2023-03-21T17:40:23.518Z,70.90
2023-03-21T17:42:52.041Z,71.10
2023-03-21T17:45:21.000Z,71.40
2023-03-21T17:47:49.580Z,71.70
2023-03-21T17:50:26.289Z,71.90
2023-03-21T17:52:56.740Z,72.20
2023-03-21T17:55:25.149Z,72.40
2023-03-21T17:57:53.273Z,72.70
2023-03-21T18:00:32.274Z,73.00
2023-03-21T18:03:00.010Z,73.40
2023-03-21T18:05:28.520Z,73.60
2023-03-21T18:08:12.852Z,73.90
2023-03-21T18:10:42.434Z,73.90
2023-03-21T18:13:13.153Z,74.10
2023-03-21T18:15:44.781Z,73.70
2023-03-21T18:18:16.303Z,74.50
2023-03-21T18:20:52.980Z,74.50
2023-03-21T18:23:24.997Z,74.70
2023-03-21T18:25:53.642Z,74.80
2023-03-21T18:28:24.966Z,74.90
2023-03-21T18:31:08.512Z,74.90
2023-03-21T18:33:41.262Z,75.00
2023-03-21T18:36:13.802Z,75.20
2023-03-21T18:38:43.223Z,75.20
2023-03-21T18:41:20.107Z,75.50
2023-03-21T18:44:13.373Z,75.60
2023-03-21T18:46:41.136Z,75.90
2023-03-21T18:49:51.895Z,76.30
2023-03-21T18:51:59.428Z,76.40
2023-03-21T18:54:29.432Z,76.60
2023-03-21T18:59:47.896Z,76.90
2023-03-21T19:02:16.809Z,77.00
2023-03-21T19:04:45.539Z,77.00
2023-03-21T19:07:14.334Z,77.20
2023-03-21T19:10:05.313Z,77.10
2023-03-21T19:12:31.584Z,77.50
2023-03-21T19:14:59.415Z,77.50
2023-03-21T19:20:43.263Z,78.00
2023-03-21T19:23:12.529Z,78.30
2023-03-21T19:25:45.629Z,78.80
2023-03-21T19:28:14.802Z,78.90
2023-03-21T19:30:49.646Z,79.00
2023-03-21T19:33:24.452Z,78.80
2023-03-21T19:36:09.172Z,79.50
2023-03-21T19:38:41.281Z,79.70
2023-03-21T19:41:10.193Z,80.00
2023-03-21T19:43:43.453Z,80.00
2023-03-21T19:46:23.430Z,80.10
2023-03-21T19:48:51.983Z,80.20
2023-03-21T19:51:28.194Z,80.30
2023-03-21T19:54:00.916Z,80.70
2023-03-21T19:56:31.419Z,80.90
2023-03-21T19:59:03.476Z,81.30
2023-03-21T20:01:35.411Z,81.60
2023-03-21T20:04:06.857Z,82.10
2023-03-21T20:06:35.059Z,82.10
2023-03-21T20:11:55.426Z,82.60
2023-03-21T20:14:25.386Z,83.10
2023-03-21T20:16:55.762Z,83.10
2023-03-21T20:19:24.704Z,83.40
2023-03-21T20:22:00.633Z,83.40
2023-03-21T20:24:31.815Z,83.60
2023-03-21T20:27:01.219Z,83.90
2023-03-21T20:32:18.917Z,84.10
2023-03-21T20:34:49.096Z,84.30
2023-03-21T20:37:18.001Z,84.70
2023-03-21T20:39:47.195Z,84.90
2023-03-21T20:42:16.799Z,85.20
2023-03-21T20:44:58.811Z,85.30
2023-03-21T20:47:29.366Z,85.20
2023-03-21T20:50:00.116Z,85.40
2023-03-21T20:55:18.919Z,85.60
2023-03-21T20:57:48.529Z,85.80
2023-03-21T21:00:17.923Z,85.90
2023-03-21T21:02:48.717Z,86.10
2023-03-21T21:05:28.000Z,86.40
2023-03-21T21:07:57.396Z,86.60
2023-03-21T21:10:42.507Z,86.80
2023-03-21T21:13:21.529Z,86.90
2023-03-21T21:15:52.591Z,87.10
2023-03-21T21:18:22.583Z,87.30
2023-03-21T21:21:01.471Z,87.50
2023-03-21T21:23:29.472Z,87.70
2023-03-21T21:25:58.218Z,88.00
2023-03-21T21:28:28.939Z,88.00
2023-03-21T21:30:58.691Z,88.30
2023-03-21T21:33:29.213Z,89.10
2023-03-21T21:35:56.817Z,89.30
2023-03-21T21:38:24.326Z,88.90
2023-03-21T21:40:54.544Z,89.50
2023-03-21T21:43:23.113Z,89.60
2023-03-21T21:45:51.862Z,89.80
2023-03-21T21:48:20.245Z,89.60
2023-03-21T21:50:52.191Z,89.60
2023-03-21T21:53:20.603Z,90.00
2023-03-21T21:55:48.930Z,89.00
2023-03-21T21:58:18.761Z,89.40
2023-03-21T22:00:50.294Z,89.30
2023-03-21T22:03:22.270Z,89.50
2023-03-21T22:05:53.345Z,89.40
2023-03-21T22:08:21.171Z,89.40
2023-03-21T22:10:50.482Z,89.90
2023-03-21T22:13:17.904Z,89.70
2023-03-21T22:15:47.065Z,89.70
2023-03-21T22:18:14.719Z,89.70
2023-03-21T22:20:47.672Z,89.70
2023-03-21T22:23:15.166Z,89.90
2023-03-21T22:25:43.468Z,90.00
2023-03-21T22:28:11.217Z,90.10
2023-03-21T22:30:38.830Z,90.10
2023-03-21T22:33:09.741Z,90.10
2023-03-21T22:35:38.082Z,90.20
2023-03-21T22:38:05.548Z,90.30
2023-03-21T22:40:32.948Z,90.40
2023-03-21T22:43:02.986Z,90.40
2023-03-21T22:45:30.422Z,90.50
2023-03-21T22:47:59.998Z,90.50
2023-03-21T22:50:28.667Z,90.60
2023-03-21T22:52:55.968Z,90.60
2023-03-21T22:55:23.209Z,90.70
2023-03-21T22:57:50.569Z,90.90
2023-03-21T23:00:20.892Z,91.30
2023-03-21T23:02:48.310Z,91.30
2023-03-21T23:05:15.767Z,91.60
2023-03-21T23:07:43.140Z,91.50
2023-03-21T23:10:12.393Z,91.60
2023-03-21T23:12:40.448Z,91.70
2023-03-21T23:15:09.288Z,91.80
2023-03-21T23:17:39.218Z,91.80
2023-03-21T23:20:08.752Z,91.90
2023-03-21T23:22:38.337Z,92.00
2023-03-21T23:25:07.747Z,92.10
2023-03-21T23:27:35.926Z,92.30
2023-03-21T23:30:08.052Z,92.40
2023-03-21T23:32:35.506Z,92.40
2023-03-21T23:35:02.844Z,92.60
2023-03-21T23:37:30.376Z,92.70
2023-03-21T23:40:00.653Z,93.00
2023-03-21T23:42:33.196Z,93.30
2023-03-21T23:45:00.616Z,93.60
2023-03-21T23:47:28.351Z,93.70
2023-03-21T23:49:55.635Z,93.80
2023-03-21T23:52:22.996Z,94.00
2023-03-21T23:54:50.661Z,94.10
2023-03-21T23:57:18.196Z,94.30
2023-03-21T23:59:47.099Z,94.30
